createdAt,value
2022-10-15T00:01:38.282Z,12.65
2022-10-15T00:04:05.058Z,13.10
2022-10-15T00:06:31.634Z,13.98
2022-10-15T00:08:58.075Z,13.27
2022-10-15T00:11:27.455Z,12.88
2022-10-15T00:13:55.856Z,12.77
2022-10-15T00:16:25.445Z,14.18
2022-10-15T00:18:54.952Z,14.80
2022-10-15T00:21:21.955Z,14.23
2022-10-15T00:23:49.288Z,15.27
2022-10-15T00:26:19.133Z,13.57
2022-10-15T00:28:49.787Z,15.98
2022-10-15T00:31:17.983Z,14.63
2022-10-15T00:33:45.244Z,14.50
2022-10-15T00:36:20.579Z,14.98
2022-10-15T00:38:47.002Z,14.00
2022-10-15T00:41:25.831Z,13.90
2022-10-15T00:43:55.358Z,14.77
2022-10-15T00:46:33.571Z,14.77
2022-10-15T00:49:14.110Z,15.07
2022-10-15T00:51:44.608Z,13.60
2022-10-15T00:54:12.251Z,15.48
2022-10-15T00:56:41.530Z,15.38
2022-10-15T00:59:08.823Z,15.57
2022-10-15T01:01:35.258Z,15.25
2022-10-15T01:04:05.042Z,15.23
2022-10-15T01:06:32.088Z,14.45
2022-10-15T01:08:59.941Z,15.05
2022-10-15T01:11:38.899Z,14.68
2022-10-15T01:14:36.563Z,14.18
2022-10-15T01:17:28.037Z,15.23
2022-10-15T01:20:22.075Z,14.80
2022-10-15T01:23:11.292Z,14.68
2022-10-15T01:26:15.709Z,15.07
2022-10-15T01:29:24.674Z,15.43
2022-10-15T01:32:03.545Z,14.70
2022-10-15T01:34:39.063Z,15.73
2022-10-15T01:37:09.939Z,16.40
2022-10-15T01:39:49.802Z,15.60
2022-10-15T01:42:25.856Z,16.60
2022-10-15T01:44:57.474Z,16.23
2022-10-15T01:47:30.070Z,15.80
2022-10-15T01:49:57.427Z,16.20
2022-10-15T01:52:34.822Z,16.13
2022-10-15T01:55:02.776Z,15.88
2022-10-15T01:57:32.436Z,15.98
2022-10-15T01:59:59.078Z,16.55
2022-10-15T02:02:26.177Z,16.25
2022-10-15T02:04:52.858Z,14.68
2022-10-15T02:07:41.935Z,17.25
2022-10-15T02:10:31.231Z,16.80
2022-10-15T02:13:10.838Z,15.73
2022-10-15T02:15:49.868Z,16.02
2022-10-15T02:18:31.422Z,16.33
2022-10-15T02:21:01.438Z,17.55
2022-10-15T02:23:47.784Z,16.63
2022-10-15T02:26:15.855Z,16.33
2022-10-15T02:28:45.013Z,15.60
2022-10-15T02:31:13.655Z,16.30
2022-10-15T02:33:40.562Z,17.08
2022-10-15T02:36:08.752Z,15.82
2022-10-15T02:38:37.210Z,16.77
2022-10-15T02:41:04.474Z,15.80
2022-10-15T02:43:31.079Z,16.50
2022-10-15T02:45:57.608Z,16.40
2022-10-15T02:48:24.836Z,15.82
2022-10-15T02:50:51.248Z,16.67
2022-10-15T02:53:17.697Z,16.65
2022-10-15T02:55:44.186Z,16.08
2022-10-15T02:58:10.663Z,15.55
2022-10-15T03:00:37.077Z,16.30
2022-10-15T03:03:03.823Z,14.77
2022-10-15T03:05:30.386Z,16.15
2022-10-15T03:07:59.464Z,16.65
2022-10-15T03:10:25.962Z,15.82
2022-10-15T03:12:52.604Z,16.50
2022-10-15T03:15:19.044Z,15.63
2022-10-15T03:17:45.556Z,14.80
2022-10-15T03:20:12.060Z,16.20
2022-10-15T03:22:38.498Z,16.58
2022-10-15T03:25:05.401Z,16.83
2022-10-15T03:27:33.326Z,16.77
2022-10-15T03:29:59.845Z,15.88
2022-10-15T03:32:26.320Z,16.30
2022-10-15T03:34:52.793Z,15.80
2022-10-15T03:37:19.250Z,14.55
2022-10-15T03:39:45.698Z,15.43
2022-10-15T03:42:12.295Z,16.08
2022-10-15T03:44:40.125Z,15.80
2022-10-15T03:47:06.550Z,15.48
2022-10-15T03:49:33.238Z,16.08
2022-10-15T03:51:59.815Z,15.68
2022-10-15T03:54:26.379Z,14.75
2022-10-15T03:56:52.894Z,14.32
2022-10-15T03:59:19.794Z,14.30
2022-10-15T04:01:46.225Z,15.23
2022-10-15T04:04:12.962Z,14.85
2022-10-15T04:06:40.382Z,15.13
2022-10-15T04:09:07.023Z,14.82
2022-10-15T04:11:33.563Z,15.25
2022-10-15T04:14:00.141Z,16.45
2022-10-15T04:16:26.597Z,14.70
2022-10-15T04:18:53.240Z,13.40
2022-10-15T04:21:19.650Z,13.60
2022-10-15T04:23:46.242Z,14.57
2022-10-15T04:26:12.709Z,14.25
2022-10-15T04:28:39.395Z,14.32
2022-10-15T04:31:06.059Z,14.73
2022-10-15T04:33:32.666Z,15.07
2022-10-15T04:36:07.400Z,16.85
2022-10-15T04:38:36.255Z,16.52
2022-10-15T04:41:08.040Z,15.50
2022-10-15T04:43:34.697Z,15.60
2022-10-15T04:46:02.548Z,16.58
2022-10-15T04:48:30.475Z,14.93
2022-10-15T04:51:03.748Z,15.82
2022-10-15T04:53:31.142Z,16.00
2022-10-15T04:56:02.475Z,15.95
2022-10-15T04:58:30.368Z,14.82
2022-10-15T05:01:00.030Z,15.38
2022-10-15T05:03:26.668Z,15.80
2022-10-15T05:05:53.287Z,15.70
2022-10-15T05:08:19.746Z,14.35
2022-10-15T05:10:46.208Z,14.15
2022-10-15T05:13:12.968Z,13.20
2022-10-15T05:15:39.378Z,15.35
2022-10-15T05:18:08.215Z,14.90
2022-10-15T05:20:34.608Z,14.27
2022-10-15T05:23:01.062Z,14.60
2022-10-15T05:25:27.593Z,14.02
2022-10-15T05:27:55.597Z,15.07
2022-10-15T05:30:21.995Z,14.30
2022-10-15T05:32:52.461Z,13.15
2022-10-15T05:35:19.159Z,14.20
2022-10-15T05:37:46.609Z,12.30
2022-10-15T05:40:13.343Z,13.93
2022-10-15T05:42:40.074Z,13.80
2022-10-15T05:45:07.107Z,13.02
2022-10-15T05:47:33.534Z,13.32
2022-10-15T05:50:00.069Z,14.38
2022-10-15T05:52:26.879Z,13.68
2022-10-15T05:54:53.716Z,13.43
2022-10-15T05:57:22.101Z,13.32
2022-10-15T05:59:48.533Z,15.50
2022-10-15T06:02:16.380Z,15.52
2022-10-15T06:04:43.470Z,14.30
2022-10-15T06:07:10.700Z,13.63
2022-10-15T06:09:37.147Z,14.85
2022-10-15T06:12:04.083Z,14.80
2022-10-15T06:14:30.791Z,13.80
2022-10-15T06:16:57.397Z,13.45
2022-10-15T06:19:23.805Z,13.98
2022-10-15T06:21:51.503Z,13.88
2022-10-15T06:24:18.014Z,13.30
2022-10-15T06:26:45.693Z,14.32
2022-10-15T06:29:12.346Z,13.18
2022-10-15T06:31:38.773Z,13.23
2022-10-15T06:34:05.197Z,14.20
2022-10-15T06:36:31.674Z,13.75
2022-10-15T06:38:58.096Z,13.00
2022-10-15T06:41:24.520Z,12.77
2022-10-15T06:46:23.245Z,12.82
2022-10-15T06:48:51.738Z,11.93
2022-10-15T06:51:18.198Z,12.82
2022-10-15T06:53:44.698Z,11.48
2022-10-15T06:56:11.335Z,11.45
2022-10-15T06:58:42.750Z,12.88
2022-10-15T07:01:10.267Z,12.40
2022-10-15T07:03:38.914Z,12.25
2022-10-15T07:06:06.986Z,12.05
2022-10-15T07:08:33.549Z,11.13
2022-10-15T07:11:04.852Z,11.48
2022-10-15T07:13:31.994Z,10.77
2022-10-15T07:15:59.021Z,11.20
2022-10-15T07:18:25.482Z,10.40
2022-10-15T07:20:52.003Z,10.73
2022-10-15T07:23:18.464Z,10.80
2022-10-15T07:25:44.916Z,11.10
2022-10-15T07:28:11.322Z,10.30
2022-10-15T07:31:09.917Z,10.05
2022-10-15T07:33:41.588Z,10.30
2022-10-15T07:36:34.236Z,10.07
2022-10-15T07:39:06.347Z,10.23
2022-10-15T07:41:41.258Z,9.85
2022-10-15T07:44:17.951Z,10.25
2022-10-15T07:46:52.111Z,9.77
2022-10-15T07:49:21.346Z,8.60
2022-10-15T07:51:53.301Z,9.15
2022-10-15T07:54:30.321Z,8.65
2022-10-15T07:57:17.704Z,8.73
2022-10-15T07:59:47.314Z,8.73
2022-10-15T08:02:18.104Z,7.55
2022-10-15T08:04:44.758Z,7.07
2022-10-15T08:07:44.611Z,7.13
2022-10-15T08:10:34.611Z,7.22
2022-10-15T08:13:01.102Z,7.00
2022-10-15T08:15:27.515Z,6.38
2022-10-15T08:17:54.084Z,6.47
2022-10-15T08:20:20.546Z,6.75
2022-10-15T08:22:46.986Z,6.35
2022-10-15T08:25:13.511Z,6.00
2022-10-15T08:27:39.964Z,6.35
2022-10-15T08:30:06.749Z,7.03
2022-10-15T08:32:33.180Z,7.60
2022-10-15T08:34:59.585Z,6.90
2022-10-15T08:37:26.094Z,7.32
2022-10-15T08:39:52.520Z,7.40
2022-10-15T08:42:41.176Z,6.88
2022-10-15T08:45:16.492Z,6.45
2022-10-15T08:47:45.979Z,6.95
2022-10-15T08:50:21.651Z,6.30
2022-10-15T08:52:51.698Z,6.53
2022-10-15T08:55:20.427Z,6.55
2022-10-15T08:57:59.291Z,6.43
2022-10-15T09:00:37.124Z,7.38
2022-10-15T09:03:34.026Z,6.88
2022-10-15T09:06:11.772Z,7.30
2022-10-15T09:08:59.640Z,7.53
2022-10-15T09:11:57.487Z,7.60
2022-10-15T09:14:30.568Z,7.15
2022-10-15T09:17:01.529Z,7.63
2022-10-15T09:19:29.359Z,7.25
2022-10-15T09:21:56.010Z,6.53
2022-10-15T09:24:25.567Z,7.40
2022-10-15T09:27:15.933Z,7.25
2022-10-15T09:29:50.170Z,6.63
2022-10-15T09:32:23.379Z,7.03
2022-10-15T09:35:00.378Z,7.47
2022-10-15T09:37:36.368Z,7.25
2022-10-15T09:40:28.343Z,7.03
2022-10-15T09:42:57.251Z,6.70
2022-10-15T09:45:26.801Z,7.30
2022-10-15T09:48:00.287Z,7.43
2022-10-15T09:50:39.531Z,7.28
2022-10-15T09:53:39.679Z,7.50
2022-10-15T09:56:06.106Z,7.70
2022-10-15T09:58:54.359Z,6.88
2022-10-15T10:01:25.677Z,7.13
2022-10-15T10:04:20.704Z,7.35
2022-10-15T10:06:53.782Z,7.05
2022-10-15T10:09:50.096Z,7.53
2022-10-15T10:12:27.352Z,6.57
2022-10-15T10:15:26.256Z,7.60
2022-10-15T10:17:54.102Z,6.88
2022-10-15T10:20:25.499Z,6.55
2022-10-15T10:23:37.289Z,7.65
2022-10-15T10:26:09.119Z,6.80
2022-10-15T10:28:49.890Z,6.28
2022-10-15T10:31:16.727Z,5.72
2022-10-15T10:33:48.926Z,5.78
2022-10-15T10:36:30.667Z,5.50
2022-10-15T10:39:19.674Z,5.82
2022-10-15T10:41:56.974Z,5.78
2022-10-15T10:44:29.823Z,6.22
2022-10-15T10:47:17.935Z,6.43
2022-10-15T10:49:52.768Z,5.97
2022-10-15T10:52:28.285Z,6.43
2022-10-15T10:55:18.881Z,6.72
2022-10-15T10:57:55.407Z,6.38
2022-10-15T11:00:37.321Z,5.93
2022-10-15T11:03:03.842Z,5.68
2022-10-15T11:05:33.645Z,6.70
2022-10-15T11:08:29.225Z,7.05
2022-10-15T11:11:37.814Z,6.18
2022-10-15T11:14:26.281Z,5.90
2022-10-15T11:17:15.639Z,5.97
2022-10-15T11:20:12.175Z,6.22
2022-10-15T11:23:05.403Z,6.65
2022-10-15T11:25:47.804Z,6.03
2022-10-15T11:28:21.496Z,5.60
2022-10-15T11:30:54.748Z,5.72
2022-10-15T11:33:49.376Z,5.63
2022-10-15T11:37:03.474Z,5.32
2022-10-15T11:39:57.626Z,5.03
2022-10-15T11:42:42.922Z,5.00
2022-10-15T11:45:25.897Z,4.93
2022-10-15T11:48:16.244Z,5.50
2022-10-15T11:50:59.723Z,4.70
2022-10-15T11:53:43.649Z,4.50
2022-10-15T11:56:23.083Z,5.03
2022-10-15T12:01:37.785Z,4.10
2022-10-15T12:04:12.427Z,4.93
2022-10-15T12:06:47.112Z,4.43
2022-10-15T12:09:20.946Z,5.53
2022-10-15T12:11:53.067Z,4.60
2022-10-15T12:14:35.150Z,4.78
2022-10-15T12:17:36.667Z,4.95
2022-10-15T12:20:12.586Z,5.18
2022-10-15T12:22:48.006Z,4.85
2022-10-15T12:25:36.118Z,4.55
2022-10-15T12:28:05.863Z,4.57
2022-10-15T12:30:34.515Z,4.47
2022-10-15T12:33:02.500Z,4.30
2022-10-15T12:35:39.476Z,4.45
2022-10-15T12:38:12.017Z,4.45
2022-10-15T12:40:39.739Z,4.25
2022-10-15T12:43:15.903Z,3.90
2022-10-15T12:45:53.830Z,4.38
2022-10-15T12:48:30.089Z,4.63
2022-10-15T12:51:22.866Z,4.32
2022-10-15T12:53:56.150Z,3.97
2022-10-15T12:56:25.319Z,4.30
2022-10-15T12:58:56.155Z,4.47
2022-10-15T13:03:49.242Z,4.20
2022-10-15T13:06:24.676Z,4.25
2022-10-15T13:08:55.264Z,3.85
2022-10-15T13:11:29.838Z,4.40
2022-10-15T13:14:02.365Z,3.45
2022-10-15T13:16:30.101Z,3.53
2022-10-15T13:18:57.432Z,3.38
2022-10-15T13:21:47.599Z,3.28
2022-10-15T13:24:18.440Z,3.13
2022-10-15T13:29:23.950Z,3.40
2022-10-15T13:31:51.738Z,3.08
2022-10-15T13:34:28.303Z,3.42
2022-10-15T13:37:00.183Z,3.30
2022-10-15T13:42:27.592Z,2.97
2022-10-15T13:45:05.015Z,3.50
2022-10-15T13:47:41.687Z,2.70
2022-10-15T13:50:19.908Z,3.00
2022-10-15T13:52:53.978Z,2.97
2022-10-15T13:55:26.852Z,2.78
2022-10-15T13:57:59.066Z,2.80
2022-10-15T14:00:31.164Z,2.28
2022-10-15T14:03:18.253Z,2.40
2022-10-15T14:05:48.130Z,2.38
2022-10-15T14:08:32.729Z,2.28
2022-10-15T14:11:00.147Z,2.20
2022-10-15T14:13:27.826Z,2.38
2022-10-15T14:16:31.375Z,2.30
2022-10-15T14:19:07.354Z,1.90
2022-10-15T14:21:35.269Z,2.08
2022-10-15T14:24:15.271Z,2.40
2022-10-15T14:26:42.332Z,2.10
2022-10-15T14:29:24.695Z,1.90
2022-10-15T14:31:51.090Z,1.60
2022-10-15T14:34:35.840Z,2.38
2022-10-15T14:37:04.505Z,2.15
2022-10-15T14:39:34.238Z,2.50
2022-10-15T14:42:04.342Z,2.42
2022-10-15T14:44:46.659Z,2.20
2022-10-15T14:47:22.665Z,2.10
2022-10-15T14:49:53.536Z,1.92
2022-10-15T14:52:21.606Z,2.10
2022-10-15T14:55:00.363Z,2.65
2022-10-15T14:57:34.771Z,2.58
2022-10-15T15:00:02.217Z,2.63
2022-10-15T15:02:29.540Z,2.40
2022-10-15T15:05:27.094Z,2.20
2022-10-15T15:07:55.831Z,2.40
2022-10-15T15:10:24.554Z,2.15
2022-10-15T15:12:56.006Z,2.33
2022-10-15T15:15:24.381Z,2.10
2022-10-15T15:17:51.043Z,2.60
2022-10-15T15:20:21.345Z,2.08
2022-10-15T15:22:54.071Z,2.10
2022-10-15T15:25:35.642Z,1.90
2022-10-15T15:28:02.260Z,2.08
2022-10-15T15:30:32.054Z,2.40
2022-10-15T15:33:00.548Z,2.00
2022-10-15T15:35:33.708Z,2.20
2022-10-15T15:38:00.268Z,2.05
2022-10-15T15:40:28.122Z,2.20
2022-10-15T15:42:55.947Z,2.10
2022-10-15T15:45:25.451Z,2.20
2022-10-15T15:47:53.937Z,1.83
2022-10-15T15:50:21.583Z,2.30
2022-10-15T15:52:48.243Z,2.35
2022-10-15T15:55:15.219Z,2.03
2022-10-15T15:57:41.620Z,1.98
2022-10-15T16:00:10.306Z,2.28
2022-10-15T16:02:38.154Z,2.13
2022-10-15T16:05:06.680Z,2.72
2022-10-15T16:07:33.390Z,2.28
2022-10-15T16:10:00.230Z,2.03
2022-10-15T16:12:26.671Z,2.60
2022-10-15T16:14:53.471Z,2.38
2022-10-15T16:17:19.985Z,2.20
2022-10-15T16:19:46.832Z,2.50
2022-10-15T16:22:13.327Z,2.80
2022-10-15T16:24:39.780Z,2.25
2022-10-15T16:27:06.419Z,2.45
2022-10-15T16:29:32.961Z,2.38
2022-10-15T16:31:59.355Z,2.33
2022-10-15T16:34:25.815Z,2.50
2022-10-15T16:36:52.211Z,2.50
2022-10-15T16:39:18.662Z,2.58
2022-10-15T16:41:45.071Z,2.30
2022-10-15T16:44:11.515Z,2.40
2022-10-15T16:46:37.938Z,2.40
2022-10-15T16:49:04.840Z,2.42
2022-10-15T16:54:03.439Z,2.50
2022-10-15T16:56:31.375Z,2.78
2022-10-15T16:58:57.947Z,3.08
2022-10-15T17:01:28.005Z,2.88
2022-10-15T17:03:54.877Z,2.85
2022-10-15T17:06:24.206Z,3.42
2022-10-15T17:08:53.359Z,3.10
2022-10-15T17:11:25.400Z,2.63
2022-10-15T17:13:53.826Z,2.70
2022-10-15T17:16:23.361Z,3.50
2022-10-15T17:21:22.035Z,2.92
2022-10-15T17:23:51.407Z,3.53
2022-10-15T17:26:21.823Z,3.33
2022-10-15T17:28:49.471Z,3.67
2022-10-15T17:31:19.334Z,3.25
2022-10-15T17:33:46.670Z,3.38
2022-10-15T17:36:19.226Z,3.33
2022-10-15T17:38:46.310Z,3.35
2022-10-15T17:41:16.827Z,3.65
2022-10-15T17:43:44.007Z,3.38
2022-10-15T17:46:14.830Z,3.30
2022-10-15T17:48:41.798Z,3.50
2022-10-15T17:51:10.973Z,4.93
2022-10-15T17:53:37.405Z,6.65
2022-10-15T17:56:13.145Z,11.75
2022-10-15T17:58:41.751Z,20.45
2022-10-15T18:01:12.908Z,22.15
2022-10-15T18:03:39.484Z,18.70
2022-10-15T18:06:07.914Z,20.80
2022-10-15T18:08:34.424Z,15.77
2022-10-15T18:11:01.250Z,17.10
2022-10-15T18:13:27.840Z,13.13
2022-10-15T18:15:55.678Z,13.23
2022-10-15T18:18:22.204Z,13.93
2022-10-15T18:20:48.970Z,11.95
2022-10-15T18:23:15.481Z,13.15
2022-10-15T18:25:42.003Z,10.57
2022-10-15T18:28:08.928Z,9.13
2022-10-15T18:30:36.809Z,7.05
2022-10-15T18:33:03.576Z,6.93
2022-10-15T18:35:29.994Z,7.35
2022-10-15T18:37:56.578Z,5.93
2022-10-15T18:40:23.041Z,8.25
2022-10-15T18:42:49.447Z,6.82
2022-10-15T18:45:15.860Z,8.82
2022-10-15T18:47:46.418Z,6.55
2022-10-15T18:50:12.931Z,5.63
2022-10-15T18:52:40.442Z,6.28
2022-10-15T18:55:07.953Z,6.28
2022-10-15T18:57:35.903Z,5.97
2022-10-15T19:00:02.861Z,4.70
2022-10-15T19:02:29.298Z,4.55
2022-10-15T19:04:55.877Z,4.43
2022-10-15T19:07:22.423Z,6.00
2022-10-15T19:09:49.211Z,7.00
2022-10-15T19:12:16.466Z,6.07
2022-10-15T19:14:44.547Z,7.22
2022-10-15T19:17:10.987Z,4.70
2022-10-15T19:19:38.772Z,5.43
2022-10-15T19:22:06.358Z,5.40
2022-10-15T19:24:32.794Z,4.60
2022-10-15T19:26:59.727Z,4.63
2022-10-15T19:29:29.278Z,4.60
2022-10-15T19:31:58.043Z,4.10
2022-10-15T19:34:25.282Z,4.30
2022-10-15T19:36:53.279Z,4.30
2022-10-15T19:39:22.793Z,3.95
2022-10-15T19:41:50.666Z,3.33
2022-10-15T19:44:19.633Z,4.38
2022-10-15T19:46:46.758Z,4.07
2022-10-15T19:49:13.887Z,3.25
2022-10-15T19:51:40.659Z,3.90
2022-10-15T19:54:07.507Z,3.75
2022-10-15T19:56:34.514Z,3.40
2022-10-15T19:59:03.515Z,3.30
2022-10-15T20:01:30.467Z,3.30
2022-10-15T20:04:03.115Z,3.78
2022-10-15T20:06:38.657Z,3.55
2022-10-15T20:09:06.556Z,3.50
2022-10-15T20:11:33.140Z,3.33
2022-10-15T20:14:00.841Z,3.95
2022-10-15T20:16:30.076Z,2.97
2022-10-15T20:19:02.016Z,3.13
2022-10-15T20:21:28.527Z,3.10
2022-10-15T20:23:55.170Z,3.28
2022-10-15T20:26:22.686Z,3.50
2022-10-15T20:28:50.268Z,3.58
2022-10-15T20:31:21.432Z,3.63
2022-10-15T20:33:48.001Z,3.70
2022-10-15T20:36:21.207Z,3.67
2022-10-15T20:38:50.059Z,3.80
2022-10-15T20:41:17.553Z,3.90
2022-10-15T20:43:45.215Z,3.53
2022-10-15T20:46:23.887Z,3.95
2022-10-15T20:48:50.592Z,3.55
2022-10-15T20:51:21.337Z,4.10
2022-10-15T20:53:49.439Z,3.80
2022-10-15T20:56:15.949Z,4.22
2022-10-15T20:58:42.415Z,4.32
2022-10-15T21:01:10.293Z,5.35
2022-10-15T21:03:36.981Z,4.80
2022-10-15T21:06:03.648Z,5.70
2022-10-15T21:08:30.108Z,6.32
2022-10-15T21:11:04.496Z,5.55
2022-10-15T21:13:31.431Z,5.80
2022-10-15T21:16:00.028Z,5.22
2022-10-15T21:18:28.060Z,5.95
2022-10-15T21:21:09.187Z,4.32
2022-10-15T21:23:36.811Z,4.20
2022-10-15T21:26:08.441Z,5.50
2022-10-15T21:28:35.719Z,3.58
2022-10-15T21:31:07.191Z,4.22
2022-10-15T21:33:36.086Z,4.15
2022-10-15T21:36:32.138Z,6.07
2022-10-15T21:39:01.152Z,8.27
2022-10-15T21:41:30.948Z,7.38
2022-10-15T21:43:58.623Z,7.13
2022-10-15T21:46:25.099Z,7.35
2022-10-15T21:48:52.766Z,6.60
2022-10-15T21:51:23.911Z,5.97
2022-10-15T21:53:50.789Z,5.22
2022-10-15T21:56:17.723Z,4.85
2022-10-15T21:58:44.260Z,4.30
2022-10-15T22:01:19.161Z,5.88
2022-10-15T22:03:46.158Z,3.72
2022-10-15T22:06:13.091Z,3.60
2022-10-15T22:08:39.666Z,4.78
2022-10-15T22:11:24.485Z,4.20
2022-10-15T22:13:53.692Z,3.78
2022-10-15T22:16:22.673Z,3.53
2022-10-15T22:18:49.438Z,2.53
2022-10-15T22:21:24.927Z,2.55
2022-10-15T22:23:59.841Z,2.95
2022-10-15T22:26:29.986Z,2.80
2022-10-15T22:28:59.922Z,3.28
2022-10-15T22:31:27.599Z,2.90
2022-10-15T22:33:54.046Z,2.88
2022-10-15T22:36:25.666Z,2.65
2022-10-15T22:41:22.344Z,2.67
2022-10-15T22:43:50.274Z,2.60
2022-10-15T22:46:16.876Z,2.83
2022-10-15T22:48:43.359Z,2.65
2022-10-15T22:51:12.457Z,2.60
2022-10-15T22:53:39.131Z,2.80
2022-10-15T22:56:15.604Z,2.47
2022-10-15T22:58:42.763Z,2.40
2022-10-15T23:01:19.718Z,2.17
2022-10-15T23:03:48.651Z,2.28
2022-10-15T23:06:15.817Z,2.50
2022-10-15T23:08:43.377Z,2.42
2022-10-15T23:11:30.139Z,2.33
2022-10-15T23:13:59.361Z,2.47
2022-10-15T23:16:32.595Z,2.30
2022-10-15T23:19:01.437Z,2.35
2022-10-15T23:21:32.623Z,2.33
2022-10-15T23:24:00.766Z,2.40
2022-10-15T23:28:57.102Z,2.30
2022-10-15T23:31:32.638Z,2.10
2022-10-15T23:33:59.941Z,2.40
2022-10-15T23:36:27.959Z,2.47
2022-10-15T23:38:59.834Z,2.40
2022-10-15T23:41:28.725Z,2.40
2022-10-15T23:43:55.281Z,2.35
2022-10-15T23:46:22.488Z,2.50
2022-10-15T23:48:49.212Z,2.20
2022-10-15T23:51:25.467Z,1.83
2022-10-15T23:53:53.265Z,2.28
2022-10-15T23:56:19.917Z,2.50
2022-10-15T23:58:54.471Z,2.10
